ARBÚCIES (La Selva)





Hora UTC 23:30
Temperatura 8.2 ºC
Humitat 62.7 %
Pressió 1015.0 hPa
Pluja 0.0 mm
Velocitat vent 7.4 km/h
Direcció vent SSW
Radiació solar 0.0 W/m²

Dades diàries 2024-02-27



Hora UTC (hivern +1h; estiu +2h)
Temperatura (ºC) Humitat (%) Pressió (hPa) Velocitat vent (km/h) Precipitació (mm) Radiació solar (W/m²)
Hora UTC Aire Humitat Pressió Vel. Dir. Vel. Max Dir. Intent. màx 5 min. Rad. Sol.
00:05 5.6 91.5 1007.0 5.3 SW 8.8 WSW 0.0 0.0
00:10 5.6 91.4 1008.0 5.9 SSW 8.8 SSW 0.0 0.0
00:15 5.5 91.6 1007.0 6.6 SW 10.6 SW 0.0 0.0
00:20 5.5 91.7 1007.0 6.7 SW 12.0 SW 0.0 0.0
00:25 5.5 91.7 1007.0 5.8 SW 11.6 WSW 0.0 0.0
00:30 5.5 91.7 1007.0 5.5 SW 10.6 SW 0.0 0.0
00:35 5.5 91.6 1008.0 6.1 SW 10.2 SW 0.0 0.0
00:40 5.5 91.7 1008.0 8.8 SW 12.7 SW 0.0 0.0
00:45 5.5 91.7 1007.0 7.1 WSW 12.0 SW 0.0 0.0
00:50 5.5 91.8 1007.0 6.3 SW 10.6 WSW 0.0 0.0
00:55 5.6 91.7 1008.0 7.2 SW 13.4 SW 0.0 0.1
01:00 5.7 91.4 1007.0 7.3 SW 10.9 SW 0.0 0.3
01:05 5.7 91.2 1008.0 8.2 SW 13.8 SSW 0.0 0.2
01:10 5.8 91.1 1008.0 7.3 SW 13.1 SW 0.0 0.4
01:15 5.8 90.9 1007.0 10.9 SW 15.9 SW 0.0 0.6
01:20 5.9 90.5 1007.0 7.0 SW 14.1 WSW 0.0 0.4
01:25 5.9 90.3 1008.0 10.3 SW 16.2 SW 0.0 0.6
01:30 6.0 89.9 1008.0 7.5 SW 13.8 WSW 0.0 0.6
01:35 6.0 89.6 1008.0 8.4 SSW 12.3 SW 0.0 0.7
01:40 6.1 89.0 1008.0 8.9 SSW 11.6 SSW 0.0 0.8
01:45 6.2 88.4 1007.0 8.5 SSW 12.7 SW 0.0 1.0
01:50 6.2 87.7 1007.0 7.4 SW 12.7 SW 0.0 0.9
01:55 6.3 87.4 1008.0 5.1 SW 11.3 SW 0.0 0.7
02:00 6.2 87.2 1008.0 3.9 SW 9.9 SW 0.0 0.6
02:05 6.2 87.3 1008.0 0.2 S 3.2 SE 0.0 0.1
02:10 6.3 87.2 1008.0 3.6 SSW 7.8 SW 0.0 0.6
02:15 6.3 87.0 1008.0 5.2 SW 8.5 S 0.0 0.6
02:20 6.2 87.0 1008.0 2.1 SW 4.9 SW 0.0 0.5
02:25 6.3 86.6 1008.0 6.9 SSW 13.8 SSW 0.0 1.6
02:30 6.4 85.4 1007.0 5.9 SSW 12.7 SSW 0.0 1.8
02:35 6.6 83.7 1008.0 8.6 SSW 15.5 SSW 0.0 2.4
02:40 6.7 81.8 1009.0 9.2 SSW 20.8 SSW 0.0 2.5
02:45 6.7 80.8 1008.0 6.0 SSW 15.2 SW 0.0 2.3
02:50 6.8 80.1 1008.0 7.8 SSW 16.2 SSW 0.0 2.4
02:55 6.7 79.9 1008.0 7.2 SSW 14.1 SW 0.0 2.4
03:00 6.7 79.8 1008.0 6.3 SSW 16.6 SSW 0.0 2.1
03:05 6.7 79.2 1008.0 6.5 SSW 12.7 S 0.0 2.4
03:10 6.8 79.1 1009.0 5.9 SW 11.6 SSW 0.0 2.0
03:15 6.8 78.9 1008.0 7.2 SW 21.5 SSW 0.0 2.2
03:20 6.9 77.7 1008.0 10.4 SW 18.0 S 0.0 3.2
03:25 7.0 76.5 1008.0 8.0 SW 18.7 SSW 0.0 2.9
03:30 7.1 75.8 1008.0 8.8 SW 21.2 SW 0.0 2.9
03:35 7.0 76.4 1008.0 9.9 SW 20.1 SW 0.0 2.5
03:40 6.9 76.4 1009.0 10.2 SW 17.6 SW 0.0 2.7
03:45 6.9 77.0 1008.0 10.1 SW 16.6 SW 0.0 2.3
03:50 6.9 77.0 1008.0 11.0 SW 18.0 SSW 0.0 2.4
03:55 6.9 76.5 1008.0 10.4 SW 20.8 SSW 0.0 2.6
04:00 7.0 76.1 1009.0 9.8 SW 21.9 SW 0.0 2.4
04:05 7.0 76.2 1008.0 5.0 WNW 14.8 SSW 0.0 2.1
04:10 7.0 75.4 1009.0 8.0 SSW 14.8 SW 0.0 2.4
04:15 7.0 75.1 1009.0 6.5 SW 20.1 WSW 0.0 2.1
04:20 7.0 75.6 1009.0 2.9 WSW 11.6 S 0.0 1.2
04:25 6.9 76.4 1009.0 1.5 WSW 6.4 SSW 0.0 0.9
04:30 6.8 76.6 1009.0 4.5 SW 11.6 SW 0.0 1.2
04:35 6.8 76.9 1009.0 6.0 SW 12.7 SW 0.0 1.1
04:40 6.7 77.5 1010.0 8.6 SW 16.6 SW 0.0 1.3
04:45 6.7 77.0 1009.0 6.0 SW 10.9 SW 0.0 1.2
04:50 6.7 77.1 1009.0 7.5 SW 18.3 SW 0.0 0.9
04:55 6.7 76.4 1009.0 6.8 SW 11.6 SW 0.0 1.3
05:00 6.7 76.4 1009.0 7.4 SW 15.2 SW 0.0 1.0
05:05 6.7 76.4 1009.0 7.3 SW 15.5 SSW 0.0 0.8
05:10 6.7 76.5 1010.0 5.5 SW 15.2 SSW 0.0 0.7
05:15 6.6 76.7 1009.0 4.5 SW 11.3 SW 0.0 0.1
05:20 6.5 76.9 1009.0 6.4 SW 12.0 SW 0.0 0.5
05:25 6.5 76.9 1009.0 7.4 SW 15.5 W 0.0 0.6
05:30 6.5 76.8 1009.0 8.6 SSW 19.4 SSW 0.0 0.7
05:35 6.5 76.5 1009.0 6.9 SW 16.6 SW 0.0 0.5
05:40 6.5 76.7 1010.0 8.8 SW 19.8 SSW 0.0 0.4
05:45 6.6 75.8 1009.0 11.4 SSW 23.3 SSW 0.0 1.4
05:50 6.6 75.1 1009.0 11.9 SW 21.2 SW 0.0 1.2
05:55 6.6 75.0 1009.0 8.4 SW 17.3 SW 0.0 0.9
06:00 6.6 75.4 1009.0 9.7 SW 19.4 SW 0.0 0.7
06:05 6.5 75.3 1010.0 10.3 SSW 18.0 SW 0.0 0.9
06:10 6.5 75.5 1010.0 7.9 SW 16.6 SW 0.0 0.7
06:15 6.5 75.7 1010.0 7.3 SSW 13.4 SSW 0.0 0.4
06:20 6.4 75.8 1009.0 6.9 SW 21.5 SW 0.0 0.7
06:25 6.4 76.0 1010.0 8.8 SW 15.5 SW 0.0 1.7
06:30 6.4 75.7 1010.0 7.4 SW 15.2 SW 0.0 2.7
06:35 6.4 75.7 1010.0 6.8 SW 13.4 WSW 0.0 3.6
06:40 6.5 75.3 1010.0 9.1 SW 19.8 SSW 0.0 6.0
06:45 6.5 75.1 1010.0 9.8 SW 16.9 SSW 0.0 9.4
06:50 6.5 74.9 1010.0 8.8 SW 18.7 SSW 0.0 12.9
06:55 6.4 75.0 1010.0 10.0 SW 19.8 SW 0.0 16.7
07:00 6.4 75.4 1010.0 9.2 SW 16.2 SW 0.0 21.0
07:05 6.4 75.2 1010.0 9.1 SSW 20.1 SW 0.0 26.6
07:10 6.4 74.9 1011.0 8.8 SW 16.9 SW 0.0 32.0
07:15 6.4 74.9 1010.0 12.9 SW 22.2 SSW 0.0 37.8
07:20 6.4 75.0 1010.0 9.1 SW 20.8 SW 0.0 41.3
07:25 6.3 75.2 1010.0 9.7 SSW 23.3 SW 0.0 43.4
07:30 6.3 75.4 1010.0 8.7 SW 20.5 SW 0.0 45.7
07:35 6.3 75.6 1011.0 9.2 SW 19.8 SSW 0.0 47.2
07:40 6.3 75.5 1011.0 9.1 SW 18.0 SW 0.0 48.1
07:45 6.2 75.5 1010.0 8.7 SSW 17.3 SSW 0.0 48.3
07:50 6.3 75.6 1011.0 9.5 SSW 19.8 SSW 0.0 47.9
07:55 6.2 75.8 1011.0 10.5 SW 20.8 SW 0.0 48.0
08:00 6.2 75.9 1011.0 10.5 SSW 19.8 SSW 0.0 48.2
08:05 6.2 75.9 1011.0 9.7 SSW 20.5 SW 0.0 48.6
08:10 6.2 75.7 1012.0 10.1 SSW 18.7 SSW 0.0 50.1
08:15 6.2 75.8 1011.0 9.0 SSW 18.0 SW 0.0 53.5
08:20 6.1 76.0 1011.0 7.0 SW 13.4 SW 0.0 57.9
08:25 6.1 76.1 1011.0 6.6 SW 14.8 SW 0.0 74.0
08:30 6.2 76.0 1011.0 7.1 SSW 15.9 SW 0.0 75.4
08:35 6.3 75.7 1011.0 7.8 SSW 15.5 SSW 0.0 76.1
08:40 6.3 75.3 1012.0 9.9 SW 22.6 SW 0.0 85.3
08:45 6.4 75.0 1011.0 7.2 SSW 20.1 S 0.0 97.8
08:50 6.4 74.9 1011.0 4.7 SW 11.6 SSW 0.0 113.2
08:55 6.5 74.8 1011.0 5.8 SSW 11.3 SW 0.0 120.6
09:00 6.6 74.3 1011.0 5.6 SSW 10.6 SW 0.0 134.4
09:05 6.8 73.7 1011.0 8.2 SSW 15.9 SW 0.0 144.8
09:10 6.9 73.2 1012.0 6.5 SSW 12.3 SW 0.0 125.7
09:15 7.1 73.1 1011.0 5.4 SW 11.3 SW 0.0 127.2
09:20 7.2 72.9 1012.0 5.4 SW 8.1 SSW 0.0 130.3
09:25 7.3 72.7 1011.0 5.4 SW 8.1 WSW 0.0 134.0
09:30 7.4 73.2 1011.0 6.7 SW 14.5 WSW 0.0 143.6
09:35 7.5 72.2 1011.0 7.7 SW 13.1 SW 0.0 145.8
09:40 7.6 70.7 1012.0 8.3 SW 15.5 SW 0.0 167.9
09:45 7.8 69.9 1012.0 4.7 SW 9.5 W 0.0 264.9
09:50 8.1 69.0 1012.0 5.4 SW 10.2 SSW 0.0 255.0
09:55 8.5 68.4 1012.0 5.6 SW 13.1 SW 0.0 449.8
10:00 9.2 66.1 1012.0 7.6 SSW 13.1 SSW 0.0 560.1
10:05 9.9 63.5 1012.0 9.1 SSW 19.1 SW 0.0 577.6
10:10 10.5 61.2 1012.0 6.6 SW 13.1 SW 0.0 592.2
10:15 10.6 58.8 1012.0 13.5 SSW 19.8 SSW 0.0 522.1
10:20 10.6 59.1 1012.0 9.8 SW 18.3 SSW 0.0 435.8
10:25 11.1 58.5 1012.0 5.3 WSW 12.3 S 0.0 524.7
10:30 11.6 56.8 1012.0 3.2 W 8.5 W 0.0 554.5
10:35 12.1 55.3 1012.0 1.5 SSE 5.6 S 0.0 609.0
10:40 13.0 52.1 1012.0 0.3 S 2.8 SW 0.0 611.6
10:45 13.7 50.6 1011.0 0.0 SSE 0.7 SSW 0.0 619.3
10:50 13.6 49.2 1012.0 1.1 ESE 4.9 ESE 0.0 632.4
10:55 13.6 48.5 1011.0 2.9 E 7.4 ENE 0.0 640.1
11:00 13.6 48.8 1011.0 2.0 ESE 7.8 E 0.0 645.0
11:05 13.5 49.8 1011.0 6.7 ENE 14.8 ENE 0.0 646.5
11:10 12.9 52.6 1012.0 7.2 E 13.4 E 0.0 647.9
11:15 12.8 55.6 1011.0 9.7 E 20.1 ENE 0.0 658.3
11:20 13.0 57.2 1011.0 13.5 ENE 21.2 ENE 0.0 667.7
11:25 12.9 57.6 1012.0 9.9 ENE 18.0 ENE 0.0 672.5
11:30 13.3 58.0 1012.0 8.1 ENE 14.1 ENE 0.0 675.6
11:35 13.5 56.4 1011.0 12.9 NE 25.0 ENE 0.0 678.9
11:40 13.2 55.8 1012.0 13.5 NE 20.8 NE 0.0 683.5
11:45 13.5 55.6 1012.0 12.3 NE 18.7 ENE 0.0 685.2
11:50 13.5 54.4 1012.0 10.5 NE 17.3 NE 0.0 683.8
11:55 13.5 53.2 1012.0 10.4 ENE 18.7 ENE 0.0 687.6
12:00 13.6 53.1 1012.0 12.1 NE 21.2 NE 0.0 715.4
12:05 14.1 51.6 1012.0 10.5 NE 19.8 NNE 0.0 725.6
12:10 14.0 49.5 1013.0 13.1 ENE 20.8 ENE 0.0 540.2
12:15 13.5 49.6 1012.0 8.5 ENE 14.8 E 0.0 517.3
12:20 13.6 50.0 1012.0 5.5 ENE 12.7 ENE 0.0 468.0
12:25 13.7 49.0 1012.0 6.2 ENE 11.6 ENE 0.0 317.4
12:30 14.1 48.3 1012.0 7.4 NE 12.0 ENE 0.0 632.3
12:35 14.5 44.8 1012.0 7.0 NE 15.5 NE 0.0 457.7
12:40 14.9 45.8 1012.0 2.9 NE 10.6 ENE 0.0 603.2
12:45 14.8 43.7 1012.0 2.7 SE 6.7 SE 0.0 502.9
12:50 14.9 42.5 1012.0 3.5 ENE 10.2 ENE 0.0 518.7
12:55 15.1 41.5 1012.0 3.4 NE 7.8 ENE 0.0 456.8
13:00 15.1 38.4 1012.0 3.6 E 8.5 E 0.0 259.3
13:05 15.0 38.8 1011.0 7.1 S 14.8 S 0.0 581.4
13:10 15.7 37.0 1012.0 2.6 S 9.2 S 0.0 697.8
13:15 16.0 36.5 1011.0 1.3 ESE 6.4 SSE 0.0 380.7
13:20 15.7 35.9 1011.0 2.9 SSW 9.5 S 0.0 175.1
13:25 15.7 35.6 1011.0 2.6 NNW 6.0 NNW 0.0 606.9
13:30 15.7 33.9 1011.0 6.1 E 10.2 ENE 0.0 247.7
13:35 15.6 32.6 1012.0 6.6 NE 19.4 ENE 0.0 247.8
13:40 15.7 32.8 1011.0 2.1 NNE 7.4 N 0.0 248.5
13:45 16.0 29.3 1011.0 1.9 SW 7.8 W 0.0 324.6
13:50 15.9 31.0 1011.0 7.8 NW 15.2 W 0.0 183.0
13:55 15.6 38.2 1011.0 8.1 NE 13.8 NE 0.0 252.0
14:00 15.4 40.3 1011.0 3.0 NE 10.2 NE 0.0 241.2
14:05 15.4 42.4 1012.0 4.3 NE 14.1 NE 0.0 177.4
14:10 15.1 42.9 1012.0 6.9 NE 12.7 NE 0.0 138.6
14:15 14.7 43.1 1011.0 6.8 NE 14.5 ENE 0.0 174.6
14:20 14.5 43.3 1011.0 8.0 ENE 14.1 ENE 0.0 152.6
14:25 14.3 43.7 1011.0 7.8 ENE 13.1 ENE 0.0 162.7
14:30 14.3 43.7 1011.0 6.5 ENE 10.2 ENE 0.0 362.2
14:35 14.8 43.5 1012.0 8.1 ENE 12.0 ENE 0.0 557.1
14:40 14.9 42.9 1011.0 8.9 ENE 19.4 NE 0.0 270.0
14:45 14.9 43.2 1011.0 11.5 ENE 16.6 NE 0.0 368.9
14:50 14.8 42.4 1011.0 9.5 ENE 19.4 ENE 0.0 334.4
14:55 14.7 42.8 1011.0 9.7 ENE 16.9 ENE 0.0 152.8
15:00 14.5 43.5 1011.0 10.5 NE 15.9 ENE 0.0 147.7
15:05 14.4 43.8 1012.0 9.0 ENE 14.1 ENE 0.0 177.1
15:10 14.4 44.3 1012.0 4.8 NE 13.8 NE 0.0 197.2
15:15 14.6 43.9 1012.0 4.8 NNE 10.2 NNE 0.0 225.6
15:20 14.7 44.4 1012.0 6.7 NE 9.9 ENE 0.0 263.6
15:25 14.8 43.8 1012.0 7.0 ENE 11.3 ENE 0.0 225.6
15:30 14.7 44.6 1012.0 7.8 NE 13.1 ENE 0.0 162.4
15:35 14.5 45.1 1012.0 9.0 NE 14.8 ENE 0.0 126.7
15:40 14.4 46.1 1012.0 7.8 NE 13.8 NE 0.0 125.7
15:45 14.3 46.4 1012.0 5.6 ENE 12.0 E 0.0 149.7
15:50 14.3 46.5 1012.0 5.6 ENE 8.5 ENE 0.0 157.8
15:55 14.4 46.9 1012.0 0.2 NE 6.0 NE 0.0 183.0
16:00 14.6 46.7 1012.0 0.1 NE 1.8 NE 0.0 245.3
16:05 14.7 45.7 1013.0 1.8 ENE 7.1 NE 0.0 152.3
16:10 14.5 45.9 1012.0 5.9 ENE 9.2 ENE 0.0 122.6
16:15 14.5 46.4 1012.0 1.4 ENE 4.6 NE 0.0 137.2
16:20 14.8 45.6 1012.0 1.0 ESE 6.0 SE 0.0 124.4
16:25 14.7 41.1 1012.0 4.1 SW 11.3 SSW 0.0 56.5
16:30 14.6 32.1 1012.0 7.7 SW 23.3 SSW 0.0 30.2
16:35 14.4 36.6 1013.0 4.2 NW 7.8 WSW 0.0 26.8
16:40 14.3 43.7 1012.0 2.4 NE 6.7 NNE 0.0 20.6
16:45 14.0 46.5 1012.0 0.8 NNE 4.6 NNE 0.0 27.3
16:50 13.5 46.2 1012.0 0.0 WSW 0.4 WSW 0.0 27.5
16:55 13.2 45.9 1012.0 0.0 WSW 0.4 WSW 0.0 21.5
17:00 12.9 48.9 1013.0 0.0 SW 0.4 WSW 0.0 15.0
17:05 12.6 51.5 1013.0 0.0 SW 0.4 SW 0.0 10.4
17:10 12.3 55.6 1013.0 0.7 SW 6.4 SW 0.0 6.4
17:15 11.9 56.2 1012.0 3.8 SSW 7.4 SSW 0.0 4.4
17:20 11.7 58.6 1013.0 2.2 SSW 5.3 SW 0.0 2.4
17:25 11.5 58.5 1013.0 0.5 SSW 3.5 SSW 0.0 1.2
17:30 11.4 60.8 1013.0 0.0 WSW 0.4 SSW 0.0 0.4
17:35 11.1 62.8 1013.0 0.0 SW 0.4 W 0.0 0.7
17:40 10.8 63.9 1013.0 0.0 SW 0.4 SW 0.0 0.5
17:45 10.5 64.1 1013.0 0.4 SW 5.6 SW 0.0 0.0
17:50 10.2 63.3 1013.0 4.5 SW 6.7 SW 0.0 0.0
17:55 10.0 63.7 1013.0 3.1 SSW 7.1 SW 0.0 0.0
18:00 9.9 64.3 1013.0 0.0 SW 0.4 S 0.0 0.0
18:05 9.5 67.4 1014.0 0.0 WSW 0.4 WSW 0.0 0.0
18:10 9.3 67.0 1013.0 0.0 SW 0.4 SW 0.0 0.0
18:15 9.2 65.6 1013.0 2.8 SW 5.6 SW 0.0 0.0
18:20 9.2 65.0 1014.0 6.6 SW 8.8 SW 0.0 0.0
18:25 9.1 64.5 1014.0 6.9 SW 8.5 SW 0.0 0.0
18:30 9.1 64.2 1014.0 6.6 SW 8.8 SSW 0.0 0.0
18:35 9.5 60.9 1014.0 8.1 SSW 10.2 SSW 0.0 0.0
18:40 9.5 60.1 1014.0 6.9 SSW 9.2 SSW 0.0 0.0
18:45 9.7 58.0 1014.0 5.4 SSW 9.2 SSW 0.0 0.0
18:50 9.4 64.1 1014.0 5.0 SW 7.8 SSW 0.0 0.0
18:55 9.1 64.1 1014.0 7.9 SSW 11.3 SSW 0.0 0.0
19:00 9.2 62.5 1014.0 5.8 SSW 11.3 SSW 0.0 0.0
19:05 9.3 60.6 1014.0 7.9 SW 12.0 SW 0.0 0.0
19:10 9.5 59.5 1014.0 8.4 SW 10.9 SW 0.0 0.0
19:15 9.2 62.6 1014.0 7.2 SSW 9.5 SW 0.0 0.0
19:20 9.2 60.2 1014.0 7.5 SW 11.3 SW 0.0 0.0
19:25 9.3 59.8 1014.0 8.9 SW 12.3 SW 0.0 0.0
19:30 9.3 59.3 1014.0 4.4 SW 9.2 SW 0.0 0.0
19:35 9.2 60.3 1015.0 2.9 ENE 8.1 ENE 0.0 0.0
19:40 9.2 62.4 1014.0 4.1 SW 6.4 SW 0.0 0.0
19:45 8.8 65.9 1014.0 7.2 SW 10.6 SSW 0.0 0.0
19:50 8.8 64.4 1014.0 5.2 SSW 8.5 SSW 0.0 0.0
19:55 8.9 64.5 1014.0 1.8 ENE 5.6 ENE 0.0 0.0
20:00 8.7 66.6 1014.0 4.1 SW 7.1 SSW 0.0 0.0
20:05 8.6 68.3 1015.0 5.5 SW 8.5 SW 0.0 0.0
20:10 8.3 69.8 1014.0 4.5 SSW 8.1 S 0.0 0.0
20:15 8.6 66.5 1014.0 3.1 SW 6.4 SW 0.0 0.0
20:20 8.6 66.1 1014.0 6.7 SW 9.2 SW 0.0 0.0
20:25 8.7 64.7 1015.0 6.2 SSW 9.2 SSW 0.0 0.0
20:30 8.7 65.6 1014.0 7.8 SSW 10.2 SW 0.0 0.0
20:35 8.6 66.3 1015.0 7.7 SW 10.6 SW 0.0 0.0
20:40 8.3 68.0 1014.0 1.7 SW 7.1 SW 0.0 0.0
20:45 8.2 68.5 1015.0 0.0 SSW 0.4 W 0.0 0.0
20:50 8.3 68.3 1015.0 0.2 SW 4.6 SSW 0.0 0.0
20:55 8.3 68.6 1015.0 6.1 SSW 11.3 S 0.0 0.0
21:00 8.3 68.6 1014.0 6.5 SW 11.6 SSW 0.0 0.0
21:05 8.1 70.6 1015.0 6.2 SW 9.9 WSW 0.0 0.0
21:10 8.0 71.3 1015.0 2.4 W 6.0 WSW 0.0 0.0
21:15 8.2 68.7 1014.0 3.9 S 9.2 S 0.0 0.0
21:20 8.4 67.6 1015.0 4.2 SW 7.1 SSW 0.0 0.0
21:25 8.4 67.0 1015.0 3.6 SW 7.8 SW 0.0 0.0
21:30 8.4 64.4 1015.0 7.6 SW 12.3 SW 0.0 0.0
21:35 8.8 60.9 1015.0 7.1 SW 11.3 SW 0.0 0.0
21:40 9.0 60.2 1015.0 5.3 SW 8.8 SW 0.0 0.0
21:45 8.8 62.7 1015.0 1.7 W 7.8 SW 0.0 0.0
21:50 8.6 65.8 1015.0 2.6 SW 10.9 SSW 0.0 0.0
21:55 8.3 67.7 1015.0 9.9 SW 13.1 SSW 0.0 0.0
22:00 8.3 66.1 1015.0 9.7 SW 13.1 SW 0.0 0.0
22:05 8.5 64.3 1016.0 9.3 SW 11.3 SW 0.0 0.0
22:10 8.5 62.7 1015.0 8.0 SSW 10.6 SSW 0.0 0.0
22:15 8.6 62.2 1015.0 9.0 SSW 12.7 SSW 0.0 0.0
22:20 8.5 62.7 1015.0 8.8 SSW 11.3 SSW 0.0 0.0
22:25 8.4 62.8 1015.0 6.8 SW 10.2 SW 0.0 0.0
22:30 8.5 62.1 1015.0 7.7 SSW 11.6 SSW 0.0 0.0
22:35 8.5 61.6 1016.0 9.0 SSW 13.1 SSW 0.0 0.0
22:40 8.5 60.8 1015.0 7.9 SW 11.6 SW 0.0 0.0
22:45 8.5 64.3 1015.0 2.0 SW 7.4 SSW 0.0 0.0
22:50 8.2 64.3 1015.0 8.3 SSW 12.3 SSW 0.0 0.0
22:55 8.2 64.6 1015.0 4.4 SW 8.8 WSW 0.0 0.0
23:00 8.2 64.9 1015.0 4.8 SW 8.1 SW 0.0 0.0
23:05 7.9 67.2 1016.0 7.6 SW 12.0 SSW 0.0 0.0
23:10 8.0 67.1 1015.0 6.2 SW 8.5 SW 0.0 0.0
23:15 8.0 65.3 1015.0 7.6 SW 9.5 SSW 0.0 0.0
23:20 8.2 64.0 1015.0 8.5 SW 10.2 SW 0.0 0.0
23:25 8.2 63.6 1015.0 9.3 SSW 13.1 SSW 0.0 0.0
23:30 8.2 62.7 1015.0 7.4 SSW 9.9 SW 0.0 0.0
Màxima 16.0 91.8 1016.0 13.5 NE 25.0 ENE 0.0 725.6
Mínima 5.5 29.3 1007.0
Total 0.0